Time;durP1;ratioP1;P1;durP2;ratioP2;P2;SDS_P1;SDS_P2;PMS_P1;PMS_P2;Temp;Humidity;BMP_temperature;BMP_pressure;BME280_temperature;BME280_humidity;BME280_pressure;Samples;Min_cycle;Max_cycle;Signal;HPM_P1;HPM_P2
2022/03/13 00:00:46;;;;;;;14.50;9.03;;;10.90;97.20;;;;;;4989486;28;20034;-67
2022/03/13 00:03:14;;;;;;;12.30;9.23;;;10.70;97.10;;;;;;4989117;28;20046;-67
2022/03/13 00:05:42;;;;;;;12.10;8.20;;;10.70;97.10;;;;;;4990667;28;20018;-67
2022/03/13 00:08:18;;;;;;;11.47;8.47;;;10.70;97.10;;;;;;4990213;28;20209;-67
2022/03/13 00:10:47;;;;;;;10.17;8.87;;;10.80;97.10;;;;;;4990597;28;20484;-67
2022/03/13 00:13:19;;;;;;;12.67;8.63;;;10.70;93.50;;;;;;4989737;28;20015;-67
2022/03/13 00:15:45;;;;;;;10.80;7.07;;;10.90;97.20;;;;;;4990708;28;20034;-67
2022/03/13 00:18:11;;;;;;;9.37;6.73;;;10.80;97.10;;;;;;4992345;28;20383;-67
2022/03/13 00:20:38;;;;;;;10.00;8.37;;;10.80;89.80;;;;;;4994371;28;20027;-67
2022/03/13 00:23:04;;;;;;;10.67;7.70;;;;;;;;;;4993667;28;20077;-67
2022/03/13 00:25:30;;;;;;;10.13;8.27;;;10.70;97.00;;;;;;4994487;28;20489;-67
2022/03/13 00:27:56;;;;;;;9.43;7.00;;;10.70;90.40;;;;;;4993836;28;20089;-67
2022/03/13 00:30:23;;;;;;;14.82;8.68;;;10.70;97.00;;;;;;4983003;28;20058;-67
2022/03/13 00:32:49;;;;;;;10.10;7.20;;;;;;;;;;4974806;28;20535;-67
2022/03/13 00:35:14;;;;;;;10.73;8.23;;;10.70;97.00;;;;;;4975115;28;20031;-67
2022/03/13 00:37:40;;;;;;;14.03;8.70;;;10.80;95.00;;;;;;4974692;28;20089;-67
2022/03/13 00:40:06;;;;;;;11.63;7.47;;;10.70;96.90;;;;;;4974076;28;20045;-67
2022/03/13 00:42:32;;;;;;;12.20;8.30;;;;;;;;;;4974350;28;20035;-67
2022/03/13 00:44:58;;;;;;;12.00;8.53;;;11.00;96.90;;;;;;4974404;28;20037;-67
2022/03/13 00:47:24;;;;;;;11.83;7.80;;;11.00;96.80;;;;;;4974758;28;20026;-67
2022/03/13 00:49:50;;;;;;;11.57;8.53;;;10.90;96.80;;;;;;4985236;28;20394;-67
2022/03/13 00:52:16;;;;;;;12.00;7.77;;;10.90;95.80;;;;;;4993721;28;20503;-67
2022/03/13 00:54:42;;;;;;;9.37;7.77;;;;;;;;;;4994223;28;20042;-67
2022/03/13 00:57:08;;;;;;;9.77;7.37;;;10.90;96.90;;;;;;4993491;28;20034;-67
2022/03/13 00:59:34;;;;;;;13.20;7.20;;;;;;;;;;4993953;28;20022;-67
2022/03/13 01:02:00;;;;;;;10.63;7.33;;;;;;;;;;4993670;28;20080;-67
2022/03/13 01:04:26;;;;;;;9.57;7.07;;;11.00;92.90;;;;;;4994238;28;20026;-67
2022/03/13 01:06:51;;;;;;;11.77;7.83;;;10.90;97.00;;;;;;4993319;28;20038;-67
2022/03/13 01:09:17;;;;;;;9.63;6.40;;;11.00;97.10;;;;;;4993861;28;20042;-67
2022/03/13 01:11:43;;;;;;;8.27;6.83;;;10.90;97.10;;;;;;4993224;28;20026;-68
2022/03/13 01:14:09;;;;;;;10.67;7.07;;;10.90;97.20;;;;;;4993313;28;20064;-67
2022/03/13 01:16:40;;;;;;;8.50;6.10;;;10.80;97.20;;;;;;4993908;28;20034;-67
2022/03/13 01:19:07;;;;;;;9.87;7.17;;;10.90;97.20;;;;;;4992405;28;20030;-67
2022/03/13 01:21:37;;;;;;;9.37;6.97;;;10.90;90.60;;;;;;4993461;28;20030;-66
2022/03/13 01:24:16;;;;;;;11.53;9.20;;;10.90;97.40;;;;;;4993545;28;20034;-67
2022/03/13 01:26:42;;;;;;;10.37;7.90;;;10.90;97.40;;;;;;4993348;28;20375;-67
2022/03/13 01:29:13;;;;;;;9.40;7.53;;;10.80;97.50;;;;;;4992042;28;20034;-67
2022/03/13 01:31:43;;;;;;;7.57;6.13;;;10.70;94.50;;;;;;4993363;28;20036;-67
2022/03/13 01:34:11;;;;;;;9.90;8.13;;;10.60;97.60;;;;;;4993401;28;20118;-67
2022/03/13 01:36:37;;;;;;;9.43;6.90;;;;;;;;;;4993479;28;20034;-67
2022/03/13 01:39:04;;;;;;;10.67;8.07;;;10.60;97.70;;;;;;4992843;28;20791;-67
2022/03/13 01:41:32;;;;;;;9.57;7.57;;;10.70;97.80;;;;;;4993435;28;20038;-67
2022/03/13 01:43:59;;;;;;;9.43;7.03;;;10.50;97.80;;;;;;4991912;28;20030;-67
2022/03/13 01:46:28;;;;;;;11.13;8.77;;;10.60;97.90;;;;;;4993551;28;20096;-67
2022/03/13 01:49:04;;;;;;;11.67;8.80;;;10.50;90.30;;;;;;4992880;28;20046;-67
2022/03/13 01:51:32;;;;;;;15.20;9.00;;;10.50;91.20;;;;;;4993221;28;20026;-67
2022/03/13 01:54:16;;;;;;;17.73;10.93;;;10.50;98.10;;;;;;4992634;28;20113;-67
2022/03/13 01:56:41;;;;;;;;;;;10.40;92.00;;;;;;4993685;28;20064;-67
2022/03/13 01:59:09;;;;;;;11.17;9.53;;;10.20;98.10;;;;;;4992958;28;19952;-67
2022/03/13 02:01:36;;;;;;;14.53;10.97;;;10.30;90.90;;;;;;4992827;28;20033;-67
2022/03/13 02:04:02;;;;;;;14.60;11.43;;;9.90;98.10;;;;;;4992857;28;20038;-67
2022/03/13 02:06:28;;;;;;;15.63;12.23;;;10.20;98.20;;;;;;4993095;28;20038;-67
2022/03/13 02:08:54;;;;;;;18.03;13.80;;;10.10;98.20;;;;;;4992089;28;20080;-67
2022/03/13 02:11:22;;;;;;;19.53;13.73;;;10.10;98.30;;;;;;4992993;28;20026;-67
2022/03/13 02:13:49;;;;;;;15.03;12.57;;;10.00;91.60;;;;;;4992755;28;20031;-67
2022/03/13 02:16:17;;;;;;;16.20;11.97;;;9.90;98.40;;;;;;4992879;28;20133;-67
2022/03/13 02:18:48;;;;;;;19.60;13.30;;;9.90;98.40;;;;;;4992774;28;20510;-67
2022/03/13 02:21:15;;;;;;;18.40;14.23;;;10.10;91.80;;;;;;4992773;28;20022;-67
2022/03/13 02:23:41;;;;;;;20.43;14.80;;;9.80;98.50;;;;;;4992329;28;20034;-67
2022/03/13 02:26:07;;;;;;;17.17;14.00;;;9.80;98.60;;;;;;4992446;28;20042;-67
2022/03/13 02:28:35;;;;;;;18.77;14.70;;;9.70;98.60;;;;;;4992529;28;20511;-67
2022/03/13 02:31:04;;;;;;;19.50;14.83;;;9.70;92.00;;;;;;4992277;28;20022;-67
2022/03/13 02:33:31;;;;;;;22.50;14.90;;;9.70;98.90;;;;;;4992662;28;20031;-67
2022/03/13 02:36:01;;;;;;;19.43;15.57;;;9.50;98.90;;;;;;4992060;28;20034;-67
2022/03/13 02:38:28;;;;;;;24.63;15.93;;;9.60;99.00;;;;;;4992198;28;20041;-67
2022/03/13 02:40:54;;;;;;;21.03;15.50;;;9.50;97.00;;;;;;4991560;28;20084;-67
2022/03/13 02:43:20;;;;;;;20.30;17.27;;;9.40;99.20;;;;;;4992359;28;20384;-67
2022/03/13 02:45:46;;;;;;;20.10;15.40;;;9.40;99.30;;;;;;4992323;28;20026;-67
2022/03/13 02:48:12;;;;;;;22.63;17.37;;;9.30;99.40;;;;;;4991999;28;20038;-67
2022/03/13 02:50:38;;;;;;;26.37;17.70;;;9.00;99.40;;;;;;4991994;28;20030;-67
2022/03/13 02:53:04;;;;;;;21.93;17.27;;;;;;;;;;4991260;28;20054;-67
2022/03/13 02:55:31;;;;;;;24.43;16.90;;;6.80;92.20;;;;;;4992176;28;20089;-67
2022/03/13 02:57:57;;;;;;;22.67;16.27;;;9.00;99.70;;;;;;4991541;28;20041;-67
2022/03/13 03:00:41;;;;;;;24.37;17.00;;;8.90;99.80;;;;;;4992161;28;20034;-67
2022/03/13 03:03:07;;;;;;;25.57;17.70;;;8.90;99.90;;;;;;4991507;28;20019;-66
2022/03/13 03:05:33;;;;;;;22.40;16.33;;;;;;;;;;4990408;28;20049;-67
2022/03/13 03:07:58;;;;;;;21.00;15.70;;;8.80;99.90;;;;;;4990347;28;20153;-67
2022/03/13 03:10:24;;;;;;;21.27;15.87;;;8.70;99.90;;;;;;4991937;28;20052;-67
2022/03/13 03:12:49;;;;;;;24.13;16.77;;;;;;;;;;4990933;28;20034;-67
2022/03/13 03:15:18;;;;;;;20.17;15.50;;;8.90;99.90;;;;;;4991841;28;20022;-67
2022/03/13 03:17:43;;;;;;;23.23;15.00;;;8.70;99.90;;;;;;4991609;28;20050;-67
2022/03/13 03:20:11;;;;;;;21.60;16.70;;;8.80;99.40;;;;;;4991200;28;20143;-67
2022/03/13 03:22:36;;;;;;;19.57;16.00;;;8.60;99.90;;;;;;4991180;28;20029;-67
2022/03/13 03:25:03;;;;;;;20.20;15.33;;;8.80;99.90;;;;;;4991283;28;20395;-67
2022/03/13 03:27:30;;;;;;;24.27;18.10;;;8.80;99.90;;;;;;4991740;28;20076;-67
2022/03/13 03:29:56;;;;;;;24.23;17.43;;;8.70;99.90;;;;;;4991270;28;20038;-67
2022/03/13 03:32:22;;;;;;;20.70;16.67;;;8.70;99.90;;;;;;4990125;28;20084;-67
2022/03/13 03:34:48;;;;;;;20.87;16.33;;;;;;;;;;4990997;28;20084;-67
2022/03/13 03:37:13;;;;;;;28.20;16.63;;;8.60;99.90;;;;;;4991056;28;20062;-67
2022/03/13 03:39:39;;;;;;;20.57;16.33;;;8.60;96.50;;;;;;4991132;28;20118;-67
2022/03/13 03:42:04;;;;;;;23.07;16.87;;;8.60;99.90;;;;;;4991007;28;20423;-67
2022/03/13 03:44:31;;;;;;;23.27;17.27;;;;;;;;;;4991273;28;20062;-67
2022/03/13 03:46:56;;;;;;;27.13;17.57;;;8.50;99.90;;;;;;4990990;28;20042;-67
2022/03/13 03:49:22;;;;;;;23.70;17.63;;;;;;;;;;4991254;28;20122;-67
2022/03/13 03:51:48;;;;;;;22.60;16.40;;;;;;;;;;4989715;28;20042;-67
2022/03/13 03:54:17;;;;;;;22.83;17.57;;;;;;;;;;4990815;28;20353;-67
2022/03/13 03:56:43;;;;;;;24.47;17.63;;;8.60;99.90;;;;;;4991096;28;20033;-67
2022/03/13 03:59:09;;;;;;;21.50;15.80;;;;;;;;;;4990824;28;20053;-67
2022/03/13 04:01:39;;;;;;;20.23;15.97;;;8.90;93.50;;;;;;4990968;28;20622;-67
2022/03/13 04:04:07;;;;;;;21.07;15.73;;;8.60;99.90;;;;;;4990473;28;20034;-67
2022/03/13 04:06:33;;;;;;;23.40;17.17;;;8.70;99.90;;;;;;4991021;28;20050;-67
2022/03/13 04:08:59;;;;;;;22.63;18.53;;;8.80;95.70;;;;;;4990189;28;20030;-67
2022/03/13 04:11:25;;;;;;;22.07;16.93;;;8.90;99.90;;;;;;4990971;28;20041;-67
2022/03/13 04:13:51;;;;;;;22.33;17.23;;;9.00;98.50;;;;;;4990512;28;20030;-67
2022/03/13 04:16:16;;;;;;;18.47;15.60;;;8.70;99.90;;;;;;4991081;28;20476;-67
2022/03/13 04:18:42;;;;;;;22.33;16.40;;;;;;;;;;4990409;28;20030;-67
2022/03/13 04:21:08;;;;;;;18.93;15.30;;;8.70;99.90;;;;;;4990373;28;20350;-67
2022/03/13 04:23:35;;;;;;;21.37;17.67;;;8.70;94.40;;;;;;4990812;28;20113;-67
2022/03/13 04:26:03;;;;;;;19.57;15.17;;;8.70;96.10;;;;;;4990573;28;20031;-67
2022/03/13 04:28:29;;;;;;;20.77;16.30;;;8.70;99.80;;;;;;4990922;28;20045;-67
2022/03/13 04:30:59;;;;;;;15.00;13.00;;;8.90;94.80;;;;;;4990382;28;20026;-67
2022/03/13 04:33:26;;;;;;;21.07;15.53;;;8.80;99.70;;;;;;4990430;28;20427;-67
2022/03/13 04:35:53;;;;;;;18.63;14.50;;;8.90;99.70;;;;;;4989954;28;20110;-67
2022/03/13 04:38:19;;;;;;;21.60;15.97;;;8.80;99.60;;;;;;4990943;28;20042;-67
2022/03/13 04:40:45;;;;;;;20.23;15.13;;;8.70;99.60;;;;;;4990690;28;20027;-67
2022/03/13 04:43:11;;;;;;;19.10;15.27;;;;;;;;;;4990490;28;20034;-67
2022/03/13 04:45:37;;;;;;;18.13;14.33;;;;;;;;;;4990617;28;20076;-67
2022/03/13 04:48:03;;;;;;;19.83;17.13;;;8.70;99.50;;;;;;4989878;28;20043;-67
2022/03/13 04:50:29;;;;;;;22.77;15.60;;;;;;;;;;4990313;28;20045;-67
2022/03/13 04:52:54;;;;;;;21.13;16.30;;;8.90;99.40;;;;;;4989997;28;20077;-67
2022/03/13 04:55:20;;;;;;;20.50;15.03;;;8.70;99.40;;;;;;4990638;28;20031;-67
2022/03/13 04:57:45;;;;;;;21.57;14.53;;;8.70;99.30;;;;;;4990528;28;20042;-67
2022/03/13 05:00:11;;;;;;;21.07;15.67;;;8.80;99.30;;;;;;4990316;28;20026;-67
2022/03/13 05:02:37;;;;;;;18.83;14.63;;;;;;;;;;4990075;28;20061;-67
2022/03/13 05:05:05;;;;;;;17.37;13.80;;;8.80;92.50;;;;;;4993227;28;20551;-67
2022/03/13 05:07:31;;;;;;;21.03;15.87;;;;;;;;;;4993822;28;20069;-67
2022/03/13 05:09:56;;;;;;;18.97;13.20;;;8.70;99.20;;;;;;4993794;28;20037;-67
2022/03/13 05:12:27;;;;;;;21.90;15.30;;;8.70;99.20;;;;;;4994265;28;20026;-67
2022/03/13 05:14:52;;;;;;;18.33;14.27;;;8.60;99.10;;;;;;4993340;28;20050;-67
2022/03/13 05:17:18;;;;;;;18.50;13.80;;;;;;;;;;4992909;28;20116;-67
2022/03/13 05:19:44;;;;;;;17.20;13.30;;;;;;;;;;4993557;28;20045;-67
2022/03/13 05:22:10;;;;;;;17.47;13.63;;;8.60;96.90;;;;;;4993288;28;20042;-67
2022/03/13 05:24:36;;;;;;;17.13;12.90;;;8.70;99.00;;;;;;4993818;28;20034;-67
2022/03/13 05:27:02;;;;;;;15.87;12.40;;;;;;;;;;4993449;28;20054;-67
2022/03/13 05:29:27;;;;;;;17.17;13.67;;;8.70;98.90;;;;;;4993741;28;20391;-67
2022/03/13 05:31:53;;;;;;;16.33;12.43;;;8.80;98.80;;;;;;4992857;28;20022;-67
2022/03/13 05:34:18;;;;;;;17.17;12.47;;;8.60;97.60;;;;;;4993523;28;20113;-67
2022/03/13 05:36:44;;;;;;;16.70;11.73;;;8.80;98.60;;;;;;4993215;28;20034;-67
2022/03/13 05:39:10;;;;;;;18.83;11.90;;;;;;;;;;4993199;28;20470;-67
2022/03/13 05:41:39;;;;;;;15.27;11.93;;;8.30;98.20;;;;;;4993417;28;20026;-69
2022/03/13 05:44:05;;;;;;;16.67;12.60;;;8.70;94.00;;;;;;4993168;28;20065;-67
2022/03/13 05:46:32;;;;;;;14.27;11.57;;;8.70;95.10;;;;;;4991768;28;20038;-67
2022/03/13 05:48:57;;;;;;;14.50;11.50;;;8.70;98.20;;;;;;4992951;28;20030;-67
2022/03/13 05:51:23;;;;;;;13.37;10.80;;;8.70;98.20;;;;;;4993271;28;20034;-67
2022/03/13 05:53:49;;;;;;;15.40;10.77;;;;;;;;;;4992608;28;20053;-67
2022/03/13 05:56:15;;;;;;;13.87;10.50;;;8.80;97.60;;;;;;4993283;28;20032;-67
2022/03/13 05:58:40;;;;;;;16.57;10.93;;;8.70;98.00;;;;;;4993097;28;20022;-67
2022/03/13 06:01:08;;;;;;;14.33;10.23;;;8.20;97.80;;;;;;4992269;28;20034;-67
2022/03/13 06:03:34;;;;;;;14.33;10.27;;;;;;;;;;4992972;28;20041;-68
2022/03/13 06:06:02;;;;;;;15.50;11.50;;;8.60;97.80;;;;;;4992883;28;20022;-67
2022/03/13 06:08:28;;;;;;;16.03;11.50;;;8.80;97.90;;;;;;4992827;28;20125;-67
2022/03/13 06:10:53;;;;;;;15.47;10.67;;;8.70;93.90;;;;;;4991341;28;20122;-67
2022/03/13 06:13:22;;;;;;;14.63;10.00;;;8.80;97.90;;;;;;4993026;28;20030;-67
2022/03/13 06:15:48;;;;;;;13.37;10.50;;;;;;;;;;4991378;28;20049;-68
2022/03/13 06:18:13;;;;;;;16.07;11.33;;;8.60;97.80;;;;;;4992847;28;20547;-67
2022/03/13 06:20:39;;;;;;;15.03;11.17;;;8.80;97.80;;;;;;4992714;28;20038;-67
2022/03/13 06:23:05;;;;;;;16.63;13.03;;;;;;;;;;4992151;28;20076;-68
2022/03/13 06:25:31;;;;;;;16.93;10.00;;;;;;;;;;4992762;28;20054;-67
2022/03/13 06:27:57;;;;;;;14.13;11.07;;;;;;;;;;4992255;28;20096;-67
2022/03/13 06:30:23;;;;;;;17.37;12.87;;;8.50;97.50;;;;;;4992216;28;20459;-67
2022/03/13 06:32:51;;;;;;;13.90;10.00;;;8.60;90.50;;;;;;4992672;28;20156;-67
2022/03/13 06:35:19;;;;;;;16.63;10.63;;;8.60;97.30;;;;;;4992668;28;20483;-67
2022/03/13 06:37:46;;;;;;;14.77;11.20;;;;;;;;;;4992321;28;20031;-67
2022/03/13 06:40:14;;;;;;;14.77;10.53;;;8.70;97.20;;;;;;4992026;28;20518;-67
2022/03/13 06:42:40;;;;;;;19.23;10.17;;;8.20;97.10;;;;;;4992247;28;20518;-67
2022/03/13 06:45:09;;;;;;;14.60;10.73;;;8.60;94.20;;;;;;4991583;28;20027;-67
2022/03/13 06:47:35;;;;;;;14.20;10.23;;;8.60;96.90;;;;;;4991870;28;20030;-67
2022/03/13 06:50:00;;;;;;;14.00;10.93;;;8.60;96.50;;;;;;4991942;28;20033;-67
2022/03/13 06:52:26;;;;;;;14.97;9.80;;;;;;;;;;4992121;28;20062;-67
2022/03/13 06:54:52;;;;;;;15.10;9.83;;;;;;;;;;4991356;28;20398;-66
2022/03/13 06:57:18;;;;;;;15.13;10.53;;;8.60;96.60;;;;;;4992110;28;20089;-67
2022/03/13 06:59:44;;;;;;;18.10;11.30;;;8.50;95.90;;;;;;5006315;28;20031;-67
2022/03/13 07:02:11;;;;;;;21.70;10.87;;;8.80;96.20;;;;;;4991715;28;20037;-67
2022/03/13 07:04:37;;;;;;;15.00;10.60;;;8.80;96.00;;;;;;4991896;28;20041;-67
2022/03/13 07:07:03;;;;;;;13.83;10.90;;;8.70;93.60;;;;;;4991535;28;20027;-67
2022/03/13 07:09:29;;;;;;;14.90;9.03;;;8.60;96.00;;;;;;4991806;28;20096;-67
2022/03/13 07:11:54;;;;;;;12.13;9.57;;;;;;;;;;4991273;28;20049;-67
2022/03/13 07:14:21;;;;;;;14.30;10.10;;;8.70;95.90;;;;;;4990902;28;20038;-67
2022/03/13 07:16:47;;;;;;;12.73;10.53;;;8.80;92.50;;;;;;4991408;28;20476;-67
2022/03/13 07:19:12;;;;;;;13.97;9.50;;;8.90;95.90;;;;;;4991103;28;20030;-67
2022/03/13 07:21:39;;;;;;;14.20;10.03;;;8.70;90.50;;;;;;4991536;28;20034;-67
2022/03/13 07:24:05;;;;;;;13.40;8.60;;;8.60;95.70;;;;;;4991340;28;20022;-67
2022/03/13 07:26:31;;;;;;;13.37;10.43;;;;;;;;;;4991521;28;20483;-67
2022/03/13 07:28:57;;;;;;;14.17;9.97;;;;;;;;;;4990357;28;20086;-67
2022/03/13 07:31:23;;;;;;;16.90;10.33;;;8.60;95.40;;;;;;4991264;28;20018;-67
2022/03/13 07:33:49;;;;;;;13.70;8.80;;;;;;;;;;4990968;28;20027;-67
2022/03/13 07:36:15;;;;;;;16.03;10.60;;;;;;;;;;4991409;28;20194;-67
2022/03/13 07:38:41;;;;;;;18.10;11.03;;;;;;;;;;4991252;28;20034;-67
2022/03/13 07:41:06;;;;;;;14.37;9.20;;;9.00;95.20;;;;;;4990971;28;20041;-67
2022/03/13 07:43:33;;;;;;;13.97;9.73;;;;;;;;;;4990473;28;20038;-67
2022/03/13 07:45:59;;;;;;;14.97;9.83;;;9.00;94.90;;;;;;4990920;28;20038;-67
2022/03/13 07:48:24;;;;;;;16.13;10.00;;;8.90;93.10;;;;;;4991197;28;20061;-67
2022/03/13 07:50:50;;;;;;;13.93;10.50;;;8.90;94.80;;;;;;4990786;28;20054;-67
2022/03/13 07:53:16;;;;;;;16.50;10.03;;;;;;;;;;4991074;28;20128;-67
2022/03/13 07:55:42;;;;;;;15.97;9.93;;;9.00;94.30;;;;;;4991041;28;20089;-67
2022/03/13 07:58:07;;;;;;;13.17;8.97;;;9.00;94.40;;;;;;4990130;28;20040;-67
2022/03/13 08:00:33;;;;;;;14.00;9.87;;;9.20;94.40;;;;;;4991021;28;20030;-67
2022/03/13 08:02:58;;;;;;;14.70;10.47;;;9.10;94.40;;;;;;4990719;28;20080;-67
2022/03/13 08:05:24;;;;;;;14.67;9.37;;;;;;;;;;4991058;28;20113;-67
2022/03/13 08:07:56;;;;;;;16.97;11.70;;;9.20;94.10;;;;;;4990472;28;20026;-67
2022/03/13 08:10:23;;;;;;;14.40;10.50;;;8.90;86.40;;;;;;4991007;28;20034;-67
2022/03/13 08:12:49;;;;;;;14.60;9.40;;;;;;;;;;4990219;28;20050;-67
2022/03/13 08:15:15;;;;;;;12.47;9.40;;;9.30;94.10;;;;;;4989363;28;20034;-67
2022/03/13 08:17:41;;;;;;;14.30;8.87;;;;;;;;;;4990721;28;20022;-67
2022/03/13 08:20:07;;;;;;;12.27;7.87;;;9.30;91.90;;;;;;4990480;28;20112;-67
2022/03/13 08:22:33;;;;;;;12.07;8.53;;;9.40;90.40;;;;;;4990738;28;20030;-66
2022/03/13 08:24:59;;;;;;;10.10;7.67;;;9.50;93.80;;;;;;4990072;28;20038;-67
2022/03/13 08:27:25;;;;;;;11.80;9.37;;;9.50;82.70;;;;;;4990550;28;20089;-67
2022/03/13 08:29:51;;;;;;;15.60;9.67;;;9.70;90.90;;;;;;4989883;28;20042;-67
2022/03/13 08:32:16;;;;;;;13.77;10.07;;;9.60;88.60;;;;;;4990704;28;20059;-67
2022/03/13 08:34:44;;;;;;;11.83;8.47;;;9.80;93.50;;;;;;4990583;28;20026;-68
2022/03/13 08:37:10;;;;;;;15.30;9.53;;;9.70;93.10;;;;;;4990297;28;20087;-67
2022/03/13 08:39:35;;;;;;;11.83;8.20;;;10.00;89.50;;;;;;4992295;28;20487;-67
2022/03/13 08:42:02;;;;;;;10.87;9.47;;;9.90;92.80;;;;;;4993788;28;20035;-67
2022/03/13 08:44:27;;;;;;;15.60;10.93;;;9.80;90.70;;;;;;4992403;28;20487;-67
2022/03/13 08:46:53;;;;;;;14.23;10.03;;;10.00;92.50;;;;;;4993288;28;20037;-67
2022/03/13 08:49:18;;;;;;;17.97;11.03;;;9.90;92.40;;;;;;4993896;28;20430;-67
2022/03/13 08:51:44;;;;;;;12.10;9.07;;;9.80;92.40;;;;;;4993651;28;20027;-66
2022/03/13 08:54:09;;;;;;;13.10;9.57;;;9.80;92.40;;;;;;4992945;28;20045;-67
2022/03/13 08:56:35;;;;;;;12.30;8.60;;;10.00;81.10;;;;;;4993825;28;20367;-67
2022/03/13 08:59:01;;;;;;;15.67;10.67;;;10.00;92.20;;;;;;4993793;28;20068;-67
2022/03/13 09:01:27;;;;;;;12.77;9.87;;;;;;;;;;4993969;28;20113;-67
2022/03/13 09:03:53;;;;;;;11.67;9.40;;;10.10;92.00;;;;;;4993637;28;20030;-67
2022/03/13 09:06:19;;;;;;;20.10;12.30;;;10.10;90.90;;;;;;4994104;28;20542;-67
2022/03/13 09:08:44;;;;;;;14.80;10.47;;;10.40;91.90;;;;;;4993177;28;20035;-67
2022/03/13 09:11:11;;;;;;;12.67;9.03;;;;;;;;;;4993748;28;20022;-67
2022/03/13 09:13:37;;;;;;;13.23;9.27;;;10.30;91.60;;;;;;4994132;28;20081;-67
2022/03/13 09:16:03;;;;;;;13.90;9.33;;;;;;;;;;4993813;28;20027;-67
2022/03/13 09:18:30;;;;;;;13.40;9.53;;;10.50;91.30;;;;;;4994035;28;20032;-67
2022/03/13 09:20:56;;;;;;;13.67;10.23;;;;;;;;;;4993265;28;20085;-67
2022/03/13 09:23:22;;;;;;;13.27;9.73;;;10.70;91.10;;;;;;4993457;28;20114;-67
2022/03/13 09:25:50;;;;;;;13.40;10.07;;;;;;;;;;4993496;28;20109;-67
2022/03/13 09:28:16;;;;;;;14.27;10.93;;;;;;;;;;4993964;28;20092;-67
2022/03/13 09:30:42;;;;;;;10.03;8.33;;;;;;;;;;4993639;28;20035;-69
2022/03/13 09:33:08;;;;;;;15.37;11.27;;;;;;;;;;4993351;28;20529;-67
2022/03/13 09:35:34;;;;;;;13.27;10.67;;;12.00;90.10;;;;;;4993528;28;20045;-68
2022/03/13 09:38:00;;;;;;;11.73;9.90;;;;;;;;;;4992575;28;20038;-68
2022/03/13 09:40:27;;;;;;;14.70;10.33;;;12.20;89.60;;;;;;4993635;28;20181;-67
2022/03/13 09:42:53;;;;;;;12.35;9.20;;;12.40;89.10;;;;;;4993127;28;20027;-68
2022/03/13 09:45:18;;;;;;;14.52;10.35;;;12.40;88.90;;;;;;4993447;28;20383;-67
2022/03/13 09:47:44;;;;;;;15.32;10.93;;;12.60;88.50;;;;;;4993294;28;20030;-68
2022/03/13 09:50:12;;;;;;;14.60;11.03;;;12.60;88.50;;;;;;4991911;28;20033;-67
2022/03/13 09:52:40;;;;;;;15.07;10.63;;;;;;;;;;4992532;28;20492;-67
2022/03/13 09:55:07;;;;;;;13.07;10.43;;;12.50;74.90;;;;;;4992720;28;20026;-67
2022/03/13 09:57:35;;;;;;;12.70;10.48;;;;;;;;;;4993168;28;20065;-67
2022/03/13 10:00:01;;;;;;;10.65;8.73;;;12.40;88.90;;;;;;4992969;28;20069;-67
2022/03/13 10:02:34;;;;;;;13.93;10.30;;;12.50;88.70;;;;;;4992919;28;20030;-67
2022/03/13 10:05:08;;;;;;;11.55;9.93;;;12.40;89.10;;;;;;4992830;28;20105;-69
2022/03/13 10:07:50;;;;;;;;;;;12.20;75.10;;;;;;4992480;28;20034;-67
2022/03/13 10:10:15;;;;;;;16.73;11.27;;;12.10;89.40;;;;;;4992830;28;19914;-67
2022/03/13 10:12:41;;;;;;;13.45;11.27;;;;;;;;;;4992639;28;20507;-67
2022/03/13 10:15:07;;;;;;;15.38;10.82;;;12.20;89.40;;;;;;4992006;28;20060;-67
2022/03/13 10:17:36;;;;;;;14.57;10.45;;;12.40;81.70;;;;;;4991248;28;20026;-67
2022/03/13 10:20:19;;;;;;;14.80;10.43;;;12.40;89.70;;;;;;4991989;28;20026;-67
2022/03/13 10:23:10;;;;;;;13.73;10.47;;;12.40;89.70;;;;;;4989295;28;20037;-67
2022/03/13 10:25:38;;;;;;;21.15;11.38;;;12.60;89.60;;;;;;4992484;28;20030;-67
2022/03/13 10:28:24;;;;;;;15.00;10.85;;;12.60;89.60;;;;;;4991412;28;20399;-67
2022/03/13 10:30:59;;;;;;;12.82;9.93;;;12.70;72.70;;;;;;4990540;28;20045;-66
2022/03/13 10:33:44;;;;;;;19.02;11.15;;;12.60;89.70;;;;;;4992057;28;20019;-67
2022/03/13 10:36:12;;;;;;;12.02;9.38;;;12.70;89.70;;;;;;4991460;28;20033;-67
2022/03/13 10:38:38;;;;;;;13.43;9.68;;;12.60;89.40;;;;;;4992111;28;20029;-67
2022/03/13 10:41:08;;;;;;;11.85;8.73;;;12.80;89.50;;;;;;4991869;28;20034;-67
2022/03/13 10:43:35;;;;;;;11.82;9.10;;;13.00;89.30;;;;;;4992003;28;20126;-66
2022/03/13 10:46:01;;;;;;;15.63;9.40;;;13.40;84.60;;;;;;4992026;28;20375;-67
2022/03/13 10:48:29;;;;;;;14.05;10.35;;;13.40;88.60;;;;;;4992201;28;20038;-67
2022/03/13 10:51:07;;;;;;;13.93;10.88;;;13.40;88.40;;;;;;4991308;28;20022;-67
2022/03/13 10:53:32;;;;;;;13.32;10.65;;;13.40;88.50;;;;;;4990601;28;20454;-67
2022/03/13 10:56:08;;;;;;;14.95;10.48;;;13.60;88.60;;;;;;4991492;28;20038;-67
2022/03/13 10:58:39;;;;;;;14.73;11.70;;;13.40;88.50;;;;;;4992056;28;20026;-66
2022/03/13 11:01:07;;;;;;;14.30;11.07;;;13.40;88.40;;;;;;4991393;28;20110;-67
2022/03/13 11:03:37;;;;;;;14.90;10.95;;;13.50;88.30;;;;;;4991347;28;20042;-67
2022/03/13 11:06:04;;;;;;;16.50;12.07;;;13.70;88.10;;;;;;4990024;28;20114;-67
2022/03/13 11:08:30;;;;;;;14.20;11.20;;;13.80;88.50;;;;;;4991836;28;20042;-67
2022/03/13 11:10:58;;;;;;;10.98;9.40;;;13.90;88.30;;;;;;4991049;28;20093;-67
2022/03/13 11:13:28;;;;;;;15.70;12.30;;;14.10;88.60;;;;;;4991389;28;20125;-67
2022/03/13 11:15:56;;;;;;;15.48;12.07;;;14.20;88.40;;;;;;4991190;28;20061;-67
2022/03/13 11:18:28;;;;;;;13.73;11.18;;;13.90;83.60;;;;;;4991648;28;20471;-67
2022/03/13 11:20:54;;;;;;;15.35;11.88;;;13.80;88.50;;;;;;4990699;28;20411;-67
2022/03/13 11:23:21;;;;;;;13.63;11.45;;;14.10;88.70;;;;;;4991346;28;20031;-67
2022/03/13 11:25:49;;;;;;;12.15;10.52;;;14.00;89.00;;;;;;4991179;28;20472;-67
2022/03/13 11:28:16;;;;;;;13.25;10.25;;;14.00;89.20;;;;;;4990936;28;20038;-67
2022/03/13 11:30:42;;;;;;;12.20;10.15;;;;;;;;;;4990151;28;20038;-67
2022/03/13 11:33:28;;;;;;;14.88;9.57;;;14.20;89.70;;;;;;4990871;28;20041;-67
2022/03/13 11:36:13;;;;;;;10.68;8.88;;;14.20;89.70;;;;;;4990790;28;20026;-67
2022/03/13 11:39:04;;;;;;;14.27;11.77;;;14.00;89.50;;;;;;4991036;28;20022;-67
2022/03/13 11:41:43;;;;;;;13.82;9.70;;;14.00;89.80;;;;;;4977411;28;20116;-67
2022/03/13 11:44:18;;;;;;;15.05;10.90;;;13.90;89.60;;;;;;5004078;28;20373;-67
2022/03/13 11:46:45;;;;;;;11.80;9.07;;;14.10;89.70;;;;;;4990856;28;20030;-67
2022/03/13 11:49:25;;;;;;;14.07;10.80;;;14.20;90.00;;;;;;4990060;28;20063;-67
2022/03/13 11:52:12;;;;;;;11.55;8.98;;;14.00;89.80;;;;;;4990157;28;20045;-67
2022/03/13 11:54:53;;;;;;;11.65;9.07;;;14.10;90.00;;;;;;4980105;28;20038;-67
2022/03/13 11:57:20;;;;;;;13.50;8.80;;;14.40;90.30;;;;;;4990876;28;20526;-67
2022/03/13 12:00:06;;;;;;;11.60;8.32;;;14.10;90.00;;;;;;4989330;28;20084;-67
2022/03/13 12:02:41;;;;;;;11.63;8.75;;;14.20;89.90;;;;;;4990208;28;20027;-67
2022/03/13 12:05:26;;;;;;;9.95;7.55;;;14.50;90.20;;;;;;4990642;28;20109;-67
2022/03/13 12:08:08;;;;;;;10.20;7.25;;;14.30;76.30;;;;;;4990274;28;20030;-67
2022/03/13 12:10:45;;;;;;;9.13;6.80;;;14.40;90.00;;;;;;4990883;28;20048;-67
2022/03/13 12:13:16;;;;;;;12.70;7.00;;;14.30;89.90;;;;;;4989712;28;20041;-66
2022/03/13 12:15:43;;;;;;;9.63;8.00;;;14.40;73.90;;;;;;4990800;28;20050;-66
2022/03/13 12:18:27;;;;;;;14.57;9.27;;;14.40;89.40;;;;;;4989831;28;20373;-66
2022/03/13 12:21:04;;;;;;;10.10;7.45;;;14.30;90.00;;;;;;4989830;28;20073;-67
2022/03/13 12:23:34;;;;;;;10.48;8.65;;;14.70;90.10;;;;;;4990658;28;20026;-67
2022/03/13 12:26:16;;;;;;;11.73;8.15;;;14.60;89.50;;;;;;4990335;28;20025;-67
2022/03/13 12:28:42;;;;;;;10.80;8.25;;;14.50;90.20;;;;;;4970997;28;20043;-66
2022/03/13 12:31:08;;;;;;;13.70;8.77;;;14.70;90.00;;;;;;4971018;28;20030;-66
2022/03/13 12:33:36;;;;;;;10.25;7.45;;;14.70;89.90;;;;;;4970746;28;20054;-66
2022/03/13 12:36:02;;;;;;;9.82;8.10;;;14.90;89.30;;;;;;4982411;28;20472;-66
2022/03/13 12:38:33;;;;;;;12.90;8.88;;;14.80;74.20;;;;;;4990750;28;20106;-67
2022/03/13 12:41:01;;;;;;;9.32;7.55;;;14.70;88.90;;;;;;4990113;28;20038;-66
2022/03/13 12:43:47;;;;;;;10.93;9.30;;;15.10;88.90;;;;;;4990360;28;20065;-66
2022/03/13 12:46:14;;;;;;;11.65;9.23;;;15.10;89.00;;;;;;4989961;28;20018;-66
2022/03/13 12:48:58;;;;;;;9.35;7.80;;;14.90;74.10;;;;;;4990330;28;20049;-66
2022/03/13 12:51:45;;;;;;;12.07;7.57;;;14.90;89.40;;;;;;4990636;28;20018;-66
2022/03/13 12:54:12;;;;;;;10.90;8.23;;;15.10;89.60;;;;;;5004972;28;20559;-67
2022/03/13 12:56:58;;;;;;;12.65;8.52;;;15.00;89.80;;;;;;4990057;28;20023;-66
2022/03/13 12:59:40;;;;;;;12.00;7.88;;;14.90;89.40;;;;;;4990514;28;20554;-67